sensor_id;sensor_type;location;lat;lon;timestamp;P1;durP1;ratioP1;P2;durP2;ratioP2
57720;SDS011;43562;43.064;0.160;2022-08-27T00:01:50;3.15;;;2.38;;
57720;SDS011;43562;43.064;0.160;2022-08-27T00:04:16;2.35;;;2.08;;
57720;SDS011;43562;43.064;0.160;2022-08-27T00:06:42;5.22;;;2.53;;
57720;SDS011;43562;43.064;0.160;2022-08-27T00:09:08;2.00;;;1.90;;
57720;SDS011;43562;43.064;0.160;2022-08-27T00:11:34;3.22;;;2.42;;
57720;SDS011;43562;43.064;0.160;2022-08-27T00:14:01;5.20;;;2.15;;
57720;SDS011;43562;43.064;0.160;2022-08-27T00:16:28;6.03;;;2.60;;
57720;SDS011;43562;43.064;0.160;2022-08-27T00:18:54;3.08;;;2.33;;
57720;SDS011;43562;43.064;0.160;2022-08-27T00:21:21;2.83;;;2.30;;
57720;SDS011;43562;43.064;0.160;2022-08-27T00:23:47;3.88;;;2.22;;
57720;SDS011;43562;43.064;0.160;2022-08-27T00:26:13;3.05;;;2.47;;
57720;SDS011;43562;43.064;0.160;2022-08-27T00:28:40;2.30;;;2.10;;
57720;SDS011;43562;43.064;0.160;2022-08-27T00:31:07;3.13;;;2.47;;
57720;SDS011;43562;43.064;0.160;2022-08-27T00:33:33;3.17;;;2.13;;
57720;SDS011;43562;43.064;0.160;2022-08-27T00:36:00;3.72;;;2.33;;
57720;SDS011;43562;43.064;0.160;2022-08-27T00:38:27;2.30;;;2.10;;
57720;SDS011;43562;43.064;0.160;2022-08-27T00:40:53;3.83;;;1.88;;
57720;SDS011;43562;43.064;0.160;2022-08-27T00:43:22;3.95;;;2.42;;
57720;SDS011;43562;43.064;0.160;2022-08-27T00:45:50;3.17;;;2.20;;
57720;SDS011;43562;43.064;0.160;2022-08-27T00:48:18;2.33;;;2.13;;
57720;SDS011;43562;43.064;0.160;2022-08-27T00:50:46;3.60;;;2.28;;
57720;SDS011;43562;43.064;0.160;2022-08-27T00:53:15;4.15;;;2.67;;
57720;SDS011;43562;43.064;0.160;2022-08-27T00:55:46;3.72;;;2.42;;
57720;SDS011;43562;43.064;0.160;2022-08-27T01:00:41;4.57;;;2.50;;
57720;SDS011;43562;43.064;0.160;2022-08-27T01:03:08;4.38;;;2.35;;
57720;SDS011;43562;43.064;0.160;2022-08-27T01:05:34;2.28;;;2.08;;
57720;SDS011;43562;43.064;0.160;2022-08-27T01:08:03;3.15;;;2.70;;
57720;SDS011;43562;43.064;0.160;2022-08-27T01:10:31;3.30;;;2.20;;
57720;SDS011;43562;43.064;0.160;2022-08-27T01:12:57;8.48;;;2.78;;
57720;SDS011;43562;43.064;0.160;2022-08-27T01:15:24;2.60;;;2.40;;
57720;SDS011;43562;43.064;0.160;2022-08-27T01:17:51;5.13;;;2.42;;
57720;SDS011;43562;43.064;0.160;2022-08-27T01:20:21;4.45;;;2.53;;
57720;SDS011;43562;43.064;0.160;2022-08-27T01:25:15;2.50;;;2.30;;
57720;SDS011;43562;43.064;0.160;2022-08-27T01:27:41;4.90;;;2.47;;
57720;SDS011;43562;43.064;0.160;2022-08-27T01:30:09;2.60;;;2.40;;
57720;SDS011;43562;43.064;0.160;2022-08-27T01:32:36;3.45;;;2.50;;
57720;SDS011;43562;43.064;0.160;2022-08-27T01:35:06;2.80;;;2.50;;
57720;SDS011;43562;43.064;0.160;2022-08-27T01:37:32;3.80;;;2.03;;
57720;SDS011;43562;43.064;0.160;2022-08-27T01:39:59;5.97;;;2.38;;
57720;SDS011;43562;43.064;0.160;2022-08-27T01:44:53;3.40;;;2.45;;
57720;SDS011;43562;43.064;0.160;2022-08-27T01:47:20;3.33;;;2.28;;
57720;SDS011;43562;43.064;0.160;2022-08-27T01:49:47;4.78;;;1.85;;
57720;SDS011;43562;43.064;0.160;2022-08-27T01:52:13;3.13;;;2.50;;
57720;SDS011;43562;43.064;0.160;2022-08-27T01:54:40;4.95;;;2.00;;
57720;SDS011;43562;43.064;0.160;2022-08-27T01:57:06;2.92;;;2.63;;
57720;SDS011;43562;43.064;0.160;2022-08-27T01:59:32;4.30;;;2.45;;
57720;SDS011;43562;43.064;0.160;2022-08-27T02:01:59;2.47;;;2.20;;
57720;SDS011;43562;43.064;0.160;2022-08-27T02:04:26;6.25;;;2.30;;
57720;SDS011;43562;43.064;0.160;2022-08-27T02:06:53;2.70;;;2.40;;
57720;SDS011;43562;43.064;0.160;2022-08-27T02:09:19;3.38;;;2.30;;
57720;SDS011;43562;43.064;0.160;2022-08-27T02:11:45;4.00;;;2.50;;
57720;SDS011;43562;43.064;0.160;2022-08-27T02:14:11;4.50;;;2.75;;
57720;SDS011;43562;43.064;0.160;2022-08-27T02:16:37;6.78;;;2.55;;
57720;SDS011;43562;43.064;0.160;2022-08-27T02:19:04;4.43;;;2.65;;
57720;SDS011;43562;43.064;0.160;2022-08-27T02:21:30;2.30;;;2.05;;
57720;SDS011;43562;43.064;0.160;2022-08-27T02:23:56;2.67;;;2.38;;
57720;SDS011;43562;43.064;0.160;2022-08-27T02:26:22;4.63;;;2.33;;
57720;SDS011;43562;43.064;0.160;2022-08-27T02:28:48;3.50;;;2.50;;
57720;SDS011;43562;43.064;0.160;2022-08-27T02:31:14;3.28;;;2.55;;
57720;SDS011;43562;43.064;0.160;2022-08-27T02:33:42;2.95;;;2.00;;
57720;SDS011;43562;43.064;0.160;2022-08-27T02:36:08;2.97;;;2.20;;
57720;SDS011;43562;43.064;0.160;2022-08-27T02:38:35;2.22;;;1.90;;
57720;SDS011;43562;43.064;0.160;2022-08-27T02:41:01;3.08;;;2.15;;
57720;SDS011;43562;43.064;0.160;2022-08-27T02:43:27;5.47;;;2.50;;
57720;SDS011;43562;43.064;0.160;2022-08-27T02:45:53;2.80;;;2.35;;
57720;SDS011;43562;43.064;0.160;2022-08-27T02:48:20;2.47;;;2.28;;
57720;SDS011;43562;43.064;0.160;2022-08-27T02:50:47;2.20;;;2.00;;
57720;SDS011;43562;43.064;0.160;2022-08-27T02:53:14;2.58;;;1.98;;
57720;SDS011;43562;43.064;0.160;2022-08-27T02:55:40;4.03;;;2.30;;
57720;SDS011;43562;43.064;0.160;2022-08-27T02:58:06;2.30;;;2.10;;
57720;SDS011;43562;43.064;0.160;2022-08-27T03:00:33;3.65;;;2.50;;
57720;SDS011;43562;43.064;0.160;2022-08-27T03:02:59;3.05;;;2.17;;
57720;SDS011;43562;43.064;0.160;2022-08-27T03:05:26;3.42;;;2.30;;
57720;SDS011;43562;43.064;0.160;2022-08-27T03:07:52;2.38;;;2.17;;
57720;SDS011;43562;43.064;0.160;2022-08-27T03:10:19;5.22;;;2.30;;
57720;SDS011;43562;43.064;0.160;2022-08-27T03:12:45;5.22;;;2.47;;
57720;SDS011;43562;43.064;0.160;2022-08-27T03:15:12;2.40;;;1.80;;
57720;SDS011;43562;43.064;0.160;2022-08-27T03:17:39;4.20;;;2.20;;
57720;SDS011;43562;43.064;0.160;2022-08-27T03:20:24;4.75;;;2.72;;
57720;SDS011;43562;43.064;0.160;2022-08-27T03:22:51;3.45;;;1.98;;
57720;SDS011;43562;43.064;0.160;2022-08-27T03:25:17;2.38;;;2.08;;
57720;SDS011;43562;43.064;0.160;2022-08-27T03:27:43;3.63;;;2.25;;
57720;SDS011;43562;43.064;0.160;2022-08-27T03:30:11;5.93;;;2.35;;
57720;SDS011;43562;43.064;0.160;2022-08-27T03:32:37;2.53;;;2.15;;
57720;SDS011;43562;43.064;0.160;2022-08-27T03:35:04;4.00;;;2.55;;
57720;SDS011;43562;43.064;0.160;2022-08-27T03:37:30;3.08;;;2.28;;
57720;SDS011;43562;43.064;0.160;2022-08-27T03:39:56;3.35;;;2.30;;
57720;SDS011;43562;43.064;0.160;2022-08-27T03:42:22;3.40;;;2.00;;
57720;SDS011;43562;43.064;0.160;2022-08-27T03:44:48;4.22;;;2.20;;
57720;SDS011;43562;43.064;0.160;2022-08-27T03:47:15;4.43;;;2.22;;
57720;SDS011;43562;43.064;0.160;2022-08-27T03:49:41;2.00;;;1.80;;
57720;SDS011;43562;43.064;0.160;2022-08-27T03:52:07;4.03;;;2.58;;
57720;SDS011;43562;43.064;0.160;2022-08-27T03:54:34;3.42;;;2.15;;
57720;SDS011;43562;43.064;0.160;2022-08-27T03:57:00;2.30;;;2.00;;
57720;SDS011;43562;43.064;0.160;2022-08-27T03:59:27;2.63;;;2.40;;
57720;SDS011;43562;43.064;0.160;2022-08-27T04:01:53;2.58;;;2.20;;
57720;SDS011;43562;43.064;0.160;2022-08-27T04:04:19;2.30;;;1.85;;
57720;SDS011;43562;43.064;0.160;2022-08-27T04:06:45;4.55;;;2.13;;
57720;SDS011;43562;43.064;0.160;2022-08-27T04:09:11;2.88;;;2.25;;
57720;SDS011;43562;43.064;0.160;2022-08-27T04:11:37;2.95;;;2.38;;
57720;SDS011;43562;43.064;0.160;2022-08-27T04:14:04;2.50;;;2.20;;
57720;SDS011;43562;43.064;0.160;2022-08-27T04:16:31;2.97;;;1.98;;
57720;SDS011;43562;43.064;0.160;2022-08-27T04:18:57;2.55;;;1.95;;
57720;SDS011;43562;43.064;0.160;2022-08-27T04:21:23;2.33;;;2.05;;
57720;SDS011;43562;43.064;0.160;2022-08-27T04:23:50;4.13;;;2.05;;
57720;SDS011;43562;43.064;0.160;2022-08-27T04:26:16;4.95;;;3.30;;
57720;SDS011;43562;43.064;0.160;2022-08-27T04:28:43;2.30;;;2.10;;
57720;SDS011;43562;43.064;0.160;2022-08-27T04:31:09;2.50;;;2.30;;
57720;SDS011;43562;43.064;0.160;2022-08-27T04:33:35;2.45;;;2.25;;
57720;SDS011;43562;43.064;0.160;2022-08-27T04:36:03;2.65;;;2.45;;
57720;SDS011;43562;43.064;0.160;2022-08-27T04:38:30;2.35;;;2.05;;
57720;SDS011;43562;43.064;0.160;2022-08-27T04:40:56;3.85;;;2.28;;
57720;SDS011;43562;43.064;0.160;2022-08-27T04:43:40;3.42;;;2.35;;
57720;SDS011;43562;43.064;0.160;2022-08-27T04:46:07;2.22;;;2.03;;
57720;SDS011;43562;43.064;0.160;2022-08-27T04:48:33;2.42;;;2.22;;
57720;SDS011;43562;43.064;0.160;2022-08-27T04:50:59;3.20;;;2.35;;
57720;SDS011;43562;43.064;0.160;2022-08-27T04:53:25;3.25;;;2.28;;
57720;SDS011;43562;43.064;0.160;2022-08-27T04:55:53;4.03;;;2.40;;
57720;SDS011;43562;43.064;0.160;2022-08-27T04:58:20;2.17;;;1.95;;
57720;SDS011;43562;43.064;0.160;2022-08-27T05:00:48;2.63;;;2.33;;
57720;SDS011;43562;43.064;0.160;2022-08-27T05:03:17;2.65;;;2.20;;
57720;SDS011;43562;43.064;0.160;2022-08-27T05:05:44;2.47;;;2.28;;
57720;SDS011;43562;43.064;0.160;2022-08-27T05:08:11;2.13;;;2.03;;
57720;SDS011;43562;43.064;0.160;2022-08-27T05:10:39;2.20;;;2.00;;
57720;SDS011;43562;43.064;0.160;2022-08-27T05:13:05;5.47;;;2.28;;
57720;SDS011;43562;43.064;0.160;2022-08-27T05:15:31;2.92;;;2.10;;
57720;SDS011;43562;43.064;0.160;2022-08-27T05:17:57;6.95;;;2.38;;
57720;SDS011;43562;43.064;0.160;2022-08-27T05:20:25;4.75;;;2.25;;
57720;SDS011;43562;43.064;0.160;2022-08-27T05:22:52;3.30;;;1.90;;
57720;SDS011;43562;43.064;0.160;2022-08-27T05:25:18;2.90;;;2.47;;
57720;SDS011;43562;43.064;0.160;2022-08-27T05:27:44;2.30;;;2.10;;
57720;SDS011;43562;43.064;0.160;2022-08-27T05:30:10;5.20;;;2.15;;
57720;SDS011;43562;43.064;0.160;2022-08-27T05:32:37;2.60;;;2.10;;
57720;SDS011;43562;43.064;0.160;2022-08-27T05:35:04;3.85;;;2.20;;
57720;SDS011;43562;43.064;0.160;2022-08-27T05:37:30;2.22;;;1.98;;
57720;SDS011;43562;43.064;0.160;2022-08-27T05:39:58;3.92;;;2.03;;
57720;SDS011;43562;43.064;0.160;2022-08-27T05:42:24;2.28;;;2.08;;
57720;SDS011;43562;43.064;0.160;2022-08-27T05:44:50;2.40;;;2.05;;
57720;SDS011;43562;43.064;0.160;2022-08-27T05:47:17;2.40;;;2.20;;
57720;SDS011;43562;43.064;0.160;2022-08-27T05:49:43;2.33;;;1.98;;
57720;SDS011;43562;43.064;0.160;2022-08-27T05:52:10;3.88;;;2.17;;
57720;SDS011;43562;43.064;0.160;2022-08-27T05:54:36;3.00;;;2.40;;
57720;SDS011;43562;43.064;0.160;2022-08-27T05:57:03;3.13;;;2.30;;
57720;SDS011;43562;43.064;0.160;2022-08-27T05:59:29;3.85;;;2.50;;
57720;SDS011;43562;43.064;0.160;2022-08-27T06:02:14;2.83;;;2.10;;
57720;SDS011;43562;43.064;0.160;2022-08-27T06:04:40;4.35;;;2.13;;
57720;SDS011;43562;43.064;0.160;2022-08-27T06:07:07;4.63;;;2.25;;
57720;SDS011;43562;43.064;0.160;2022-08-27T06:09:34;5.55;;;2.30;;
57720;SDS011;43562;43.064;0.160;2022-08-27T06:12:00;5.57;;;2.47;;
57720;SDS011;43562;43.064;0.160;2022-08-27T06:14:26;2.90;;;2.30;;
57720;SDS011;43562;43.064;0.160;2022-08-27T06:16:52;2.03;;;1.88;;
57720;SDS011;43562;43.064;0.160;2022-08-27T06:19:19;3.88;;;2.42;;
57720;SDS011;43562;43.064;0.160;2022-08-27T06:21:45;2.58;;;2.15;;
57720;SDS011;43562;43.064;0.160;2022-08-27T06:24:12;5.53;;;2.30;;
57720;SDS011;43562;43.064;0.160;2022-08-27T06:26:41;4.22;;;2.40;;
57720;SDS011;43562;43.064;0.160;2022-08-27T06:29:08;3.05;;;2.45;;
57720;SDS011;43562;43.064;0.160;2022-08-27T06:31:34;3.47;;;2.20;;
57720;SDS011;43562;43.064;0.160;2022-08-27T06:34:01;2.72;;;2.42;;
57720;SDS011;43562;43.064;0.160;2022-08-27T06:36:29;2.30;;;2.10;;
57720;SDS011;43562;43.064;0.160;2022-08-27T06:38:55;2.53;;;2.33;;
57720;SDS011;43562;43.064;0.160;2022-08-27T06:41:23;3.30;;;2.38;;
57720;SDS011;43562;43.064;0.160;2022-08-27T06:43:51;2.65;;;2.40;;
57720;SDS011;43562;43.064;0.160;2022-08-27T06:46:18;3.35;;;2.50;;
57720;SDS011;43562;43.064;0.160;2022-08-27T06:48:46;4.60;;;2.35;;
57720;SDS011;43562;43.064;0.160;2022-08-27T06:51:17;2.25;;;2.03;;
57720;SDS011;43562;43.064;0.160;2022-08-27T06:53:43;3.03;;;2.03;;
57720;SDS011;43562;43.064;0.160;2022-08-27T06:56:11;1.92;;;1.83;;
57720;SDS011;43562;43.064;0.160;2022-08-27T06:58:38;2.13;;;1.90;;
57720;SDS011;43562;43.064;0.160;2022-08-27T07:01:11;2.25;;;1.95;;
57720;SDS011;43562;43.064;0.160;2022-08-27T07:03:37;4.50;;;2.08;;
57720;SDS011;43562;43.064;0.160;2022-08-27T07:06:04;2.05;;;1.85;;
57720;SDS011;43562;43.064;0.160;2022-08-27T07:08:30;4.50;;;2.05;;
57720;SDS011;43562;43.064;0.160;2022-08-27T07:10:56;4.00;;;2.08;;
57720;SDS011;43562;43.064;0.160;2022-08-27T07:13:22;3.10;;;2.20;;
57720;SDS011;43562;43.064;0.160;2022-08-27T07:15:49;2.60;;;2.40;;
57720;SDS011;43562;43.064;0.160;2022-08-27T07:18:15;2.63;;;2.42;;
57720;SDS011;43562;43.064;0.160;2022-08-27T07:20:41;2.65;;;2.40;;
57720;SDS011;43562;43.064;0.160;2022-08-27T07:23:08;3.80;;;2.38;;
57720;SDS011;43562;43.064;0.160;2022-08-27T07:25:34;3.85;;;2.17;;
57720;SDS011;43562;43.064;0.160;2022-08-27T07:28:00;2.60;;;2.30;;
57720;SDS011;43562;43.064;0.160;2022-08-27T07:30:26;4.22;;;2.47;;
57720;SDS011;43562;43.064;0.160;2022-08-27T07:32:53;2.92;;;2.72;;
57720;SDS011;43562;43.064;0.160;2022-08-27T07:35:19;2.58;;;2.30;;
57720;SDS011;43562;43.064;0.160;2022-08-27T07:37:45;9.20;;;2.80;;
57720;SDS011;43562;43.064;0.160;2022-08-27T07:40:12;2.60;;;2.40;;
57720;SDS011;43562;43.064;0.160;2022-08-27T07:42:39;3.70;;;2.20;;
57720;SDS011;43562;43.064;0.160;2022-08-27T07:45:25;2.78;;;2.55;;
57720;SDS011;43562;43.064;0.160;2022-08-27T07:47:51;4.63;;;2.53;;
57720;SDS011;43562;43.064;0.160;2022-08-27T07:50:18;2.53;;;2.40;;
57720;SDS011;43562;43.064;0.160;2022-08-27T07:52:44;3.45;;;2.58;;
57720;SDS011;43562;43.064;0.160;2022-08-27T07:55:13;3.85;;;2.33;;
57720;SDS011;43562;43.064;0.160;2022-08-27T07:57:42;3.33;;;2.45;;
57720;SDS011;43562;43.064;0.160;2022-08-27T08:00:10;2.83;;;2.60;;
57720;SDS011;43562;43.064;0.160;2022-08-27T08:02:38;3.72;;;2.30;;
57720;SDS011;43562;43.064;0.160;2022-08-27T08:05:06;3.33;;;2.15;;
57720;SDS011;43562;43.064;0.160;2022-08-27T08:07:34;2.28;;;2.08;;
57720;SDS011;43562;43.064;0.160;2022-08-27T08:10:05;3.70;;;1.92;;
57720;SDS011;43562;43.064;0.160;2022-08-27T08:12:31;1.92;;;1.75;;
57720;SDS011;43562;43.064;0.160;2022-08-27T08:14:57;2.15;;;2.00;;
57720;SDS011;43562;43.064;0.160;2022-08-27T08:17:24;2.53;;;1.85;;
57720;SDS011;43562;43.064;0.160;2022-08-27T08:19:50;2.97;;;1.75;;
57720;SDS011;43562;43.064;0.160;2022-08-27T08:22:18;2.53;;;1.80;;
57720;SDS011;43562;43.064;0.160;2022-08-27T08:24:44;3.15;;;2.00;;
57720;SDS011;43562;43.064;0.160;2022-08-27T08:27:10;4.38;;;1.75;;
57720;SDS011;43562;43.064;0.160;2022-08-27T08:29:36;2.80;;;1.80;;
57720;SDS011;43562;43.064;0.160;2022-08-27T08:32:03;5.57;;;1.73;;
57720;SDS011;43562;43.064;0.160;2022-08-27T08:34:29;1.60;;;1.50;;
57720;SDS011;43562;43.064;0.160;2022-08-27T08:36:56;1.70;;;1.60;;
57720;SDS011;43562;43.064;0.160;2022-08-27T08:39:22;1.80;;;1.35;;
57720;SDS011;43562;43.064;0.160;2022-08-27T08:41:55;2.67;;;1.50;;
57720;SDS011;43562;43.064;0.160;2022-08-27T08:44:32;1.58;;;1.48;;
57720;SDS011;43562;43.064;0.160;2022-08-27T08:49:34;5.63;;;1.70;;
57720;SDS011;43562;43.064;0.160;2022-08-27T08:54:47;2.78;;;1.50;;
57720;SDS011;43562;43.064;0.160;2022-08-27T08:57:17;2.25;;;1.70;;
57720;SDS011;43562;43.064;0.160;2022-08-27T08:59:46;2.22;;;1.48;;
57720;SDS011;43562;43.064;0.160;2022-08-27T09:02:15;1.52;;;1.42;;
57720;SDS011;43562;43.064;0.160;2022-08-27T09:04:42;1.40;;;1.30;;
57720;SDS011;43562;43.064;0.160;2022-08-27T09:07:12;3.08;;;1.60;;
57720;SDS011;43562;43.064;0.160;2022-08-27T09:12:20;3.47;;;1.77;;
57720;SDS011;43562;43.064;0.160;2022-08-27T09:17:21;1.95;;;1.23;;
57720;SDS011;43562;43.064;0.160;2022-08-27T09:19:47;1.63;;;1.48;;
57720;SDS011;43562;43.064;0.160;2022-08-27T09:27:18;1.55;;;1.38;;
57720;SDS011;43562;43.064;0.160;2022-08-27T09:29:45;2.35;;;1.52;;
57720;SDS011;43562;43.064;0.160;2022-08-27T09:32:12;1.40;;;1.23;;
57720;SDS011;43562;43.064;0.160;2022-08-27T09:34:40;4.15;;;1.60;;
57720;SDS011;43562;43.064;0.160;2022-08-27T09:42:06;2.20;;;1.65;;
57720;SDS011;43562;43.064;0.160;2022-08-27T09:44:43;1.40;;;1.30;;
57720;SDS011;43562;43.064;0.160;2022-08-27T09:47:11;3.60;;;1.45;;
57720;SDS011;43562;43.064;0.160;2022-08-27T09:49:38;1.63;;;1.20;;
57720;SDS011;43562;43.064;0.160;2022-08-27T09:52:05;4.32;;;1.10;;
57720;SDS011;43562;43.064;0.160;2022-08-27T09:54:44;1.23;;;1.10;;
57720;SDS011;43562;43.064;0.160;2022-08-27T09:57:12;1.77;;;1.30;;
57720;SDS011;43562;43.064;0.160;2022-08-27T09:59:42;2.83;;;1.15;;
57720;SDS011;43562;43.064;0.160;2022-08-27T10:02:18;4.30;;;1.55;;
57720;SDS011;43562;43.064;0.160;2022-08-27T10:04:46;1.80;;;1.20;;
57720;SDS011;43562;43.064;0.160;2022-08-27T10:09:45;2.88;;;1.17;;
57720;SDS011;43562;43.064;0.160;2022-08-27T10:12:21;2.95;;;1.30;;
57720;SDS011;43562;43.064;0.160;2022-08-27T10:14:50;3.42;;;1.30;;
57720;SDS011;43562;43.064;0.160;2022-08-27T10:20:05;1.67;;;1.17;;
57720;SDS011;43562;43.064;0.160;2022-08-27T10:22:36;1.27;;;1.08;;
57720;SDS011;43562;43.064;0.160;2022-08-27T10:27:57;1.60;;;1.10;;
57720;SDS011;43562;43.064;0.160;2022-08-27T10:30:27;1.60;;;1.08;;
57720;SDS011;43562;43.064;0.160;2022-08-27T10:38:17;1.45;;;1.20;;
57720;SDS011;43562;43.064;0.160;2022-08-27T10:40:51;1.60;;;1.17;;
57720;SDS011;43562;43.064;0.160;2022-08-27T10:48:39;1.38;;;1.00;;
57720;SDS011;43562;43.064;0.160;2022-08-27T10:51:25;3.30;;;1.00;;
57720;SDS011;43562;43.064;0.160;2022-08-27T10:56:42;1.45;;;0.90;;
57720;SDS011;43562;43.064;0.160;2022-08-27T11:01:39;3.47;;;1.10;;
57720;SDS011;43562;43.064;0.160;2022-08-27T11:04:09;2.05;;;1.20;;
57720;SDS011;43562;43.064;0.160;2022-08-27T11:06:40;1.55;;;1.00;;
57720;SDS011;43562;43.064;0.160;2022-08-27T11:09:15;2.97;;;1.10;;
57720;SDS011;43562;43.064;0.160;2022-08-27T11:11:43;1.67;;;1.10;;
57720;SDS011;43562;43.064;0.160;2022-08-27T11:17:13;1.42;;;1.05;;
57720;SDS011;43562;43.064;0.160;2022-08-27T11:19:58;3.63;;;1.27;;
57720;SDS011;43562;43.064;0.160;2022-08-27T11:22:30;3.50;;;1.10;;
57720;SDS011;43562;43.064;0.160;2022-08-27T11:27:25;1.40;;;1.30;;
57720;SDS011;43562;43.064;0.160;2022-08-27T11:34:56;3.88;;;1.50;;
57720;SDS011;43562;43.064;0.160;2022-08-27T11:42:37;2.50;;;1.42;;
57720;SDS011;43562;43.064;0.160;2022-08-27T11:45:15;2.45;;;1.25;;
57720;SDS011;43562;43.064;0.160;2022-08-27T11:47:58;2.25;;;1.52;;
57720;SDS011;43562;43.064;0.160;2022-08-27T11:50:26;1.63;;;1.40;;
57720;SDS011;43562;43.064;0.160;2022-08-27T11:53:03;2.58;;;1.38;;
57720;SDS011;43562;43.064;0.160;2022-08-27T11:55:35;3.58;;;1.83;;
57720;SDS011;43562;43.064;0.160;2022-08-27T12:00:30;1.63;;;1.52;;
57720;SDS011;43562;43.064;0.160;2022-08-27T12:03:00;3.10;;;1.75;;
57720;SDS011;43562;43.064;0.160;2022-08-27T12:08:09;1.30;;;1.20;;
57720;SDS011;43562;43.064;0.160;2022-08-27T12:23:11;2.47;;;1.92;;
57720;SDS011;43562;43.064;0.160;2022-08-27T12:26:11;2.83;;;1.42;;
57720;SDS011;43562;43.064;0.160;2022-08-27T12:28:40;2.67;;;1.80;;
57720;SDS011;43562;43.064;0.160;2022-08-27T12:31:06;2.67;;;1.58;;
57720;SDS011;43562;43.064;0.160;2022-08-27T12:33:34;4.40;;;2.08;;
57720;SDS011;43562;43.064;0.160;2022-08-27T12:36:20;3.83;;;2.10;;
57720;SDS011;43562;43.064;0.160;2022-08-27T12:38:48;1.60;;;1.50;;
57720;SDS011;43562;43.064;0.160;2022-08-27T12:41:31;4.93;;;1.55;;
57720;SDS011;43562;43.064;0.160;2022-08-27T12:44:09;1.70;;;1.60;;
57720;SDS011;43562;43.064;0.160;2022-08-27T12:46:46;3.75;;;1.73;;
57720;SDS011;43562;43.064;0.160;2022-08-27T12:49:17;2.33;;;1.60;;
57720;SDS011;43562;43.064;0.160;2022-08-27T12:51:43;3.15;;;1.60;;
57720;SDS011;43562;43.064;0.160;2022-08-27T13:01:46;2.22;;;1.58;;
57720;SDS011;43562;43.064;0.160;2022-08-27T13:04:36;2.08;;;1.58;;
57720;SDS011;43562;43.064;0.160;2022-08-27T13:07:00;2.47;;;1.63;;
57720;SDS011;43562;43.064;0.160;2022-08-27T13:09:27;2.75;;;1.77;;
57720;SDS011;43562;43.064;0.160;2022-08-27T13:11:54;3.90;;;1.65;;
57720;SDS011;43562;43.064;0.160;2022-08-27T13:14:22;1.77;;;1.60;;
57720;SDS011;43562;43.064;0.160;2022-08-27T13:16:49;3.42;;;1.48;;
57720;SDS011;43562;43.064;0.160;2022-08-27T13:20:01;1.92;;;1.40;;
57720;SDS011;43562;43.064;0.160;2022-08-27T13:22:03;3.45;;;1.70;;
57720;SDS011;43562;43.064;0.160;2022-08-27T13:24:34;3.10;;;1.70;;
57720;SDS011;43562;43.064;0.160;2022-08-27T13:27:02;2.22;;;1.60;;
57720;SDS011;43562;43.064;0.160;2022-08-27T13:29:28;3.22;;;1.77;;
57720;SDS011;43562;43.064;0.160;2022-08-27T13:31:55;1.98;;;1.58;;
57720;SDS011;43562;43.064;0.160;2022-08-27T13:34:22;2.08;;;1.52;;
57720;SDS011;43562;43.064;0.160;2022-08-27T13:37:05;1.63;;;1.42;;
57720;SDS011;43562;43.064;0.160;2022-08-27T13:39:35;2.08;;;1.50;;
57720;SDS011;43562;43.064;0.160;2022-08-27T13:42:02;4.25;;;1.70;;
57720;SDS011;43562;43.064;0.160;2022-08-27T13:44:29;1.88;;;1.77;;
57720;SDS011;43562;43.064;0.160;2022-08-27T13:47:07;2.35;;;1.98;;
57720;SDS011;43562;43.064;0.160;2022-08-27T13:49:34;5.50;;;2.35;;
57720;SDS011;43562;43.064;0.160;2022-08-27T13:54:57;4.22;;;2.40;;
57720;SDS011;43562;43.064;0.160;2022-08-27T13:57:28;1.60;;;1.50;;
57720;SDS011;43562;43.064;0.160;2022-08-27T13:59:55;1.95;;;1.75;;
57720;SDS011;43562;43.064;0.160;2022-08-27T14:02:32;3.67;;;2.08;;
57720;SDS011;43562;43.064;0.160;2022-08-27T14:05:04;4.22;;;3.17;;
57720;SDS011;43562;43.064;0.160;2022-08-27T14:07:34;5.60;;;2.80;;
57720;SDS011;43562;43.064;0.160;2022-08-27T14:10:21;3.30;;;2.20;;
57720;SDS011;43562;43.064;0.160;2022-08-27T14:13:02;2.20;;;2.00;;
57720;SDS011;43562;43.064;0.160;2022-08-27T14:15:37;3.42;;;1.58;;
57720;SDS011;43562;43.064;0.160;2022-08-27T14:18:05;2.95;;;2.33;;
57720;SDS011;43562;43.064;0.160;2022-08-27T14:20:32;1.80;;;1.67;;
57720;SDS011;43562;43.064;0.160;2022-08-27T14:22:58;4.43;;;2.13;;
57720;SDS011;43562;43.064;0.160;2022-08-27T14:25:24;2.40;;;1.60;;
57720;SDS011;43562;43.064;0.160;2022-08-27T14:27:51;2.85;;;1.70;;
57720;SDS011;43562;43.064;0.160;2022-08-27T14:30:18;2.28;;;1.95;;
57720;SDS011;43562;43.064;0.160;2022-08-27T14:32:44;2.10;;;1.90;;
57720;SDS011;43562;43.064;0.160;2022-08-27T14:35:13;2.22;;;2.00;;
57720;SDS011;43562;43.064;0.160;2022-08-27T14:37:40;2.13;;;1.92;;
57720;SDS011;43562;43.064;0.160;2022-08-27T14:40:07;3.33;;;1.73;;
57720;SDS011;43562;43.064;0.160;2022-08-27T14:42:33;3.08;;;1.77;;
57720;SDS011;43562;43.064;0.160;2022-08-27T14:44:59;3.17;;;1.80;;
57720;SDS011;43562;43.064;0.160;2022-08-27T14:47:25;1.83;;;1.50;;
57720;SDS011;43562;43.064;0.160;2022-08-27T14:49:52;4.75;;;1.95;;
57720;SDS011;43562;43.064;0.160;2022-08-27T14:52:18;2.22;;;1.90;;
57720;SDS011;43562;43.064;0.160;2022-08-27T14:54:44;1.70;;;1.60;;
57720;SDS011;43562;43.064;0.160;2022-08-27T14:57:10;2.67;;;1.63;;
57720;SDS011;43562;43.064;0.160;2022-08-27T14:59:37;2.13;;;1.70;;
57720;SDS011;43562;43.064;0.160;2022-08-27T15:02:05;3.35;;;2.10;;
57720;SDS011;43562;43.064;0.160;2022-08-27T15:04:32;3.08;;;2.10;;
57720;SDS011;43562;43.064;0.160;2022-08-27T15:06:58;3.72;;;2.40;;
57720;SDS011;43562;43.064;0.160;2022-08-27T15:09:25;2.83;;;1.80;;
57720;SDS011;43562;43.064;0.160;2022-08-27T15:11:51;2.58;;;2.05;;
57720;SDS011;43562;43.064;0.160;2022-08-27T15:14:22;3.17;;;2.10;;
57720;SDS011;43562;43.064;0.160;2022-08-27T15:16:49;2.22;;;1.63;;
57720;SDS011;43562;43.064;0.160;2022-08-27T15:19:17;3.47;;;1.90;;
57720;SDS011;43562;43.064;0.160;2022-08-27T15:21:44;2.05;;;1.70;;
57720;SDS011;43562;43.064;0.160;2022-08-27T15:26:40;5.25;;;2.35;;
57720;SDS011;43562;43.064;0.160;2022-08-27T15:29:06;1.70;;;1.60;;
57720;SDS011;43562;43.064;0.160;2022-08-27T15:31:33;5.03;;;1.88;;
57720;SDS011;43562;43.064;0.160;2022-08-27T15:33:59;2.78;;;1.75;;
57720;SDS011;43562;43.064;0.160;2022-08-27T15:36:25;2.80;;;1.80;;
57720;SDS011;43562;43.064;0.160;2022-08-27T15:38:51;2.53;;;2.10;;
57720;SDS011;43562;43.064;0.160;2022-08-27T15:41:19;1.98;;;1.80;;
57720;SDS011;43562;43.064;0.160;2022-08-27T15:43:45;2.38;;;2.05;;
57720;SDS011;43562;43.064;0.160;2022-08-27T15:46:12;2.50;;;1.77;;
57720;SDS011;43562;43.064;0.160;2022-08-27T15:48:38;4.95;;;2.30;;
57720;SDS011;43562;43.064;0.160;2022-08-27T15:51:05;3.63;;;1.90;;
57720;SDS011;43562;43.064;0.160;2022-08-27T15:53:32;2.47;;;2.00;;
57720;SDS011;43562;43.064;0.160;2022-08-27T15:55:58;3.05;;;1.90;;
57720;SDS011;43562;43.064;0.160;2022-08-27T15:58:27;2.90;;;1.90;;
57720;SDS011;43562;43.064;0.160;2022-08-27T16:00:53;3.33;;;2.10;;
57720;SDS011;43562;43.064;0.160;2022-08-27T16:03:19;3.33;;;2.08;;
57720;SDS011;43562;43.064;0.160;2022-08-27T16:05:45;2.13;;;1.80;;
57720;SDS011;43562;43.064;0.160;2022-08-27T16:08:12;4.43;;;2.15;;
57720;SDS011;43562;43.064;0.160;2022-08-27T16:10:38;6.30;;;2.10;;
57720;SDS011;43562;43.064;0.160;2022-08-27T16:13:04;4.18;;;1.90;;
57720;SDS011;43562;43.064;0.160;2022-08-27T16:15:31;4.07;;;2.00;;
57720;SDS011;43562;43.064;0.160;2022-08-27T16:17:58;2.88;;;1.60;;
57720;SDS011;43562;43.064;0.160;2022-08-27T16:20:25;2.50;;;2.20;;
57720;SDS011;43562;43.064;0.160;2022-08-27T16:22:51;3.53;;;2.30;;
57720;SDS011;43562;43.064;0.160;2022-08-27T16:25:18;2.42;;;2.10;;
57720;SDS011;43562;43.064;0.160;2022-08-27T16:27:47;4.03;;;1.85;;
57720;SDS011;43562;43.064;0.160;2022-08-27T16:30:13;3.40;;;2.22;;
57720;SDS011;43562;43.064;0.160;2022-08-27T16:32:39;5.95;;;2.05;;